Terminal Aerodrome Forecast
Issued by NWS Billings, MT

Home | Current Version | Previous Version | Text Only | Print | Product List | Glossary On
Versions: 1 2 3 4 5 6 7 8 9 10 11 12 13 14 15 16 17 18 19 20 21 22 23 24 25 26 27 28 29 30 31 32
000
FTUS45 KBYZ 251739
TAFMLS
TAF
KMLS 251739Z 2518/2618 29010KT P6SM -SHRASN FEW014 OVC024
     FM252000 31015KT P6SM VCSH BKN025 OVC040
     FM260600 33012KT P6SM VCSH BKN020
     FM261000 34006KT 3SM -SN BR SCT015 OVC020=

USA.gov is the U.S. government's official web portal to all federal, state and local government web resources and services.